Time;durP1;ratioP1;P1;durP2;ratioP2;P2;SDS_P1;SDS_P2;PMS_P1;PMS_P2;Temp;Humidity;BMP_temperature;BMP_pressure;BME280_temperature;BME280_humidity;BME280_pressure;Samples;Min_cycle;Max_cycle;Signal;HPM_P1;HPM_P2
2022/10/04 00:01:53;;;;;;;;;;;;;;;12.17;45.50;101991.28;5029504;28;20168;-71
2022/10/04 00:04:25;;;;;;;9.40;3.78;;;;;;;12.41;44.51;101981.16;5046535;28;20392;-71
2022/10/04 00:07:02;;;;;;;4.93;3.85;;;;;;;12.42;45.32;101982.03;5034768;28;21003;-71
2022/10/04 00:09:36;;;;;;;6.47;3.70;;;;;;;12.41;44.79;101977.53;5034232;28;20451;-71
2022/10/04 00:12:05;;;;;;;6.13;3.60;;;;;;;12.39;44.49;101972.16;5039164;28;20140;-72
2022/10/04 00:14:37;;;;;;;6.57;4.25;;;;;;;12.40;45.09;101975.78;5038301;28;20111;-72
2022/10/04 00:17:12;;;;;;;5.45;3.55;;;;;;;12.39;45.04;101960.28;5040025;28;20051;-71
2022/10/04 00:19:44;;;;;;;7.32;4.10;;;;;;;12.36;44.73;101958.69;5037873;28;20048;-72
2022/10/04 00:22:17;;;;;;;6.80;4.20;;;;;;;12.35;45.05;101962.44;5041761;28;20132;-72
2022/10/04 00:25:19;;;;;;;6.05;4.13;;;;;;;12.32;45.69;101961.78;5039430;28;20041;-71
2022/10/04 00:28:26;;;;;;;4.80;3.60;;;;;;;12.30;45.36;101959.16;5018159;28;20078;-71
2022/10/04 00:31:12;;;;;;;6.15;3.92;;;;;;;12.29;45.39;101959.28;5047024;28;20060;-71
2022/10/04 00:33:42;;;;;;;6.63;3.70;;;;;;;12.28;45.20;101957.53;5045381;28;20481;-71
2022/10/04 00:36:40;;;;;;;6.18;3.80;;;;;;;12.25;46.05;101949.53;5039632;28;20438;-71
2022/10/04 00:39:38;;;;;;;5.88;3.80;;;;;;;12.24;45.85;101948.66;5009656;28;20522;-71
2022/10/04 00:42:43;;;;;;;6.03;4.07;;;;;;;12.23;45.71;101949.63;5047013;28;20131;-71
2022/10/04 00:45:28;;;;;;;5.80;3.40;;;;;;;12.24;45.47;101945.91;5033331;28;20059;-72
2022/10/04 00:48:18;;;;;;;6.53;3.72;;;;;;;12.23;45.42;101951.50;5037366;28;20045;-71
2022/10/04 00:50:51;;;;;;;5.72;3.72;;;;;;;12.22;45.53;101947.00;5032383;28;20350;-72
2022/10/04 00:53:36;;;;;;;5.05;3.72;;;;;;;12.22;45.23;101947.00;5040431;28;20049;-73
2022/10/04 00:56:11;;;;;;;5.72;3.55;;;;;;;12.22;45.26;101947.88;5037732;28;20132;-71
2022/10/04 00:59:03;;;;;;;4.55;3.15;;;;;;;12.21;45.77;101943.41;5030347;28;20289;-72
2022/10/04 01:01:35;;;;;;;5.30;3.30;;;;;;;12.19;45.71;101945.41;5030630;28;20092;-72
2022/10/04 01:04:06;;;;;;;5.20;3.70;;;;;;;12.18;45.37;101943.66;5045974;28;20401;-71
2022/10/04 01:06:36;;;;;;;5.55;3.90;;;;;;;12.17;45.08;101944.63;5050072;28;20050;-72
2022/10/04 01:09:09;;;;;;;5.72;3.65;;;;;;;12.18;45.76;101948.25;5050693;28;20037;-71
2022/10/04 01:11:44;;;;;;;6.63;3.72;;;;;;;12.17;45.72;101946.50;5031882;28;20416;-72
2022/10/04 01:14:21;;;;;;;6.80;3.53;;;;;;;12.17;45.16;101947.38;5050143;28;20124;-72
2022/10/04 01:16:51;;;;;;;5.97;3.70;;;;;;;12.18;45.39;101945.50;5049559;28;20422;-72
2022/10/04 01:19:29;;;;;;;4.82;3.22;;;;;;;12.20;45.62;101946.28;5050058;28;20103;-72
2022/10/04 01:22:03;;;;;;;5.40;3.60;;;;;;;12.18;45.59;101946.38;5029091;28;20146;-71
2022/10/04 01:24:36;;;;;;;5.75;3.65;;;;;;;12.20;45.95;101949.91;5041119;28;20041;-73
2022/10/04 01:27:24;;;;;;;7.32;3.40;;;;;;;12.18;45.23;101940.91;5049554;28;20456;-73
2022/10/04 01:29:52;;;;;;;5.63;3.53;;;;;;;12.17;45.66;101939.16;5037382;28;20037;-72
2022/10/04 01:32:20;;;;;;;6.00;3.90;;;;;;;12.19;45.59;101939.03;5048666;28;20053;-72
2022/10/04 01:34:48;;;;;;;5.88;3.67;;;;;;;12.19;45.69;101936.28;5046428;28;20037;-72
2022/10/04 01:37:16;;;;;;;6.10;3.55;;;;;;;12.19;45.36;101922.56;5049882;28;20045;-71
2022/10/04 01:39:46;;;;;;;4.35;3.30;;;;;;;12.22;45.16;101923.19;5037328;28;20038;-72
2022/10/04 01:42:18;;;;;;;5.50;3.55;;;;;;;12.21;45.46;101921.47;5024704;28;20385;-72
2022/10/04 01:44:52;;;;;;;4.93;3.28;;;;;;;12.17;45.55;101911.69;5049938;28;20053;-72
2022/10/04 01:47:26;;;;;;;6.32;3.75;;;;;;;12.21;45.31;101915.09;5020412;28;20129;-72
2022/10/04 01:49:58;;;;;;;7.07;3.90;;;;;;;12.18;45.52;101907.09;5029715;28;20307;-71
2022/10/04 01:52:33;;;;;;;5.72;3.35;;;;;;;12.17;45.62;101899.84;5028459;23;20061;-71
2022/10/04 01:55:06;;;;;;;5.20;3.60;;;;;;;12.18;45.75;101913.44;5000828;28;20048;-70
2022/10/04 01:57:36;;;;;;;;;;;;;;;11.89;46.21;101909.31;4980797;28;20047;-70
2022/10/04 02:00:07;;;;;;;5.70;3.40;;;;;;;12.11;45.61;101909.44;4976732;28;19928;-70
2022/10/04 02:02:42;;;;;;;6.43;3.60;;;;;;;12.13;46.02;101907.44;4985911;28;20054;-70
2022/10/04 02:05:13;;;;;;;5.80;3.40;;;;;;;12.11;45.58;101913.06;4989648;28;20086;-70
2022/10/04 02:07:42;;;;;;;6.07;3.22;;;;;;;12.10;45.38;101915.91;4989535;28;20082;-71
2022/10/04 02:10:17;;;;;;;5.20;3.20;;;;;;;12.11;45.61;101907.56;4989969;28;20105;-71
2022/10/04 02:12:48;;;;;;;6.70;4.30;;;;;;;12.10;45.90;101897.59;4994660;28;20145;-71
2022/10/04 02:15:20;;;;;;;6.90;3.58;;;;;;;12.10;45.58;101899.47;4990313;28;20465;-69
2022/10/04 02:17:49;;;;;;;5.28;3.22;;;;;;;12.08;45.29;101906.91;4980827;28;20035;-70
2022/10/04 02:20:20;;;;;;;5.03;3.42;;;;;;;12.09;45.68;101906.81;4985089;28;20777;-70
2022/10/04 02:22:51;;;;;;;5.50;3.15;;;;;;;12.09;45.71;101900.44;5010022;28;20052;-70
2022/10/04 02:25:21;;;;;;;6.90;3.70;;;;;;;12.08;45.74;101898.69;5004708;28;20050;-70
2022/10/04 02:27:54;;;;;;;6.07;3.40;;;;;;;12.06;45.28;101897.94;5002232;28;20046;-70
2022/10/04 02:30:23;;;;;;;6.78;3.67;;;;;;;12.05;45.36;101887.94;4991302;28;20143;-70
2022/10/04 02:32:59;;;;;;;8.63;3.85;;;;;;;12.06;45.49;101889.69;4997251;28;20054;-70
2022/10/04 02:35:34;;;;;;;6.20;3.45;;;;;;;12.05;45.72;101890.69;4996439;28;20363;-70
2022/10/04 02:38:09;;;;;;;5.50;3.20;;;;;;;12.05;45.84;101876.97;5005213;28;20121;-70
2022/10/04 02:40:45;;;;;;;8.15;4.00;;;;;;;12.03;45.46;101870.75;4989846;28;20046;-69
2022/10/04 02:43:19;;;;;;;5.53;3.55;;;;;;;12.01;45.47;101868.13;5008638;28;20053;-70
2022/10/04 02:45:52;;;;;;;5.45;3.50;;;;;;;12.00;45.63;101862.75;4996836;28;20591;-70
2022/10/04 02:48:37;;;;;;;6.15;3.50;;;;;;;11.98;46.16;101864.72;5008030;28;20054;-69
2022/10/04 02:51:24;;;;;;;5.70;3.50;;;;;;;11.96;46.31;101855.75;5006425;28;20046;-70
2022/10/04 02:54:01;;;;;;;5.70;3.60;;;;;;;11.93;46.09;101864.22;5000806;28;20513;-71
2022/10/04 02:56:33;;;;;;;6.97;3.88;;;;;;;11.90;45.64;101865.31;4995886;28;20057;-72
2022/10/04 02:59:02;;;;;;;5.82;3.65;;;;;;;11.88;45.99;101856.34;5009237;28;20100;-70
2022/10/04 03:01:45;;;;;;;5.15;3.60;;;;;;;11.88;46.35;101858.22;5000951;28;20050;-70
2022/10/04 03:04:14;;;;;;;5.35;3.63;;;;;;;11.82;46.19;101848.59;4999986;28;20368;-73
2022/10/04 03:06:45;;;;;;;5.30;3.42;;;;;;;11.82;46.02;101848.59;4988007;28;20503;-70
2022/10/04 03:09:15;;;;;;;5.45;3.58;;;;;;;11.82;45.80;101836.72;4994438;28;20280;-71
2022/10/04 03:11:45;;;;;;;4.95;3.17;;;;;;;11.80;46.29;101842.31;5004377;28;20513;-71
2022/10/04 03:14:17;;;;;;;5.88;3.30;;;;;;;11.80;46.30;101845.06;4988896;28;20499;-71
2022/10/04 03:16:47;;;;;;;6.07;3.67;;;;;;;11.78;45.95;101840.72;4989023;28;20049;-71
2022/10/04 03:19:18;;;;;;;5.82;3.20;;;;;;;11.79;46.27;101846.09;4997422;28;20100;-71
2022/10/04 03:21:48;;;;;;;5.82;3.45;;;;;;;11.79;45.98;101846.09;4988645;28;20050;-71
2022/10/04 03:24:20;;;;;;;6.50;3.30;;;;;;;11.79;46.18;101840.63;5008416;28;20038;-71
2022/10/04 03:26:54;;;;;;;7.10;3.80;;;;;;;11.78;46.39;101835.25;4999291;28;20133;-71
2022/10/04 03:29:24;;;;;;;5.57;3.85;;;;;;;11.79;46.51;101831.50;5009367;28;20050;-71
2022/10/04 03:31:57;;;;;;;7.28;3.88;;;;;;;11.78;46.51;101836.13;5002795;28;20047;-71
2022/10/04 03:34:27;;;;;;;5.72;3.63;;;;;;;11.77;45.95;101830.75;4995216;28;20458;-70
2022/10/04 03:36:57;;;;;;;6.22;3.70;;;;;;;11.77;46.47;101817.91;5008261;28;20510;-71
2022/10/04 03:39:29;;;;;;;7.15;3.75;;;;;;;11.76;46.47;101813.41;5007754;28;20050;-70
2022/10/04 03:42:03;;;;;;;6.00;3.60;;;;;;;11.73;46.66;101814.50;5005285;28;20458;-69
2022/10/04 03:44:31;;;;;;;7.63;4.00;;;;;;;11.72;46.21;101820.09;5003892;28;20115;-70
2022/10/04 03:47:00;;;;;;;6.28;4.03;;;;;;;11.71;46.43;101821.13;4989729;28;20399;-71
2022/10/04 03:49:33;;;;;;;7.05;3.80;;;;;;;11.71;46.45;101819.25;5005975;28;20073;-71
2022/10/04 03:52:02;;;;;;;5.88;4.03;;;;;;;11.69;46.25;101825.84;4998330;28;20056;-70
2022/10/04 03:54:32;;;;;;;5.80;3.47;;;;;;;11.69;46.27;101823.09;4989770;28;20046;-71
2022/10/04 03:57:02;;;;;;;6.43;3.63;;;;;;;11.68;46.21;101818.63;4999749;28;20115;-70
2022/10/04 03:59:30;;;;;;;5.68;4.07;;;;;;;11.64;46.74;101820.69;5000131;28;20046;-70
2022/10/04 04:02:05;;;;;;;7.20;4.22;;;;;;;11.67;46.75;101816.88;4988152;28;20093;-71
2022/10/04 04:04:42;;;;;;;6.03;3.65;;;;;;;11.64;46.37;101811.59;4995353;28;20384;-70
2022/10/04 04:07:13;;;;;;;6.53;3.70;;;;;;;11.64;46.88;101814.34;5007675;28;20046;-70
2022/10/04 04:09:45;;;;;;;6.68;3.75;;;;;;;11.63;46.69;101809.88;5007419;28;20467;-70
2022/10/04 04:12:19;;;;;;;5.47;3.50;;;;;;;11.62;46.61;101811.75;5001686;28;20037;-71
2022/10/04 04:14:50;;;;;;;5.10;3.70;;;;;;;11.61;46.81;101820.97;5008010;28;20053;-70
2022/10/04 04:17:37;;;;;;;5.93;3.90;;;;;;;11.60;47.04;101816.44;5006444;28;20046;-70
2022/10/04 04:20:18;;;;;;;6.72;3.92;;;;;;;11.59;47.02;101816.53;5007861;28;20129;-70
2022/10/04 04:22:59;;;;;;;6.10;3.53;;;;;;;11.58;46.98;101820.28;5007172;28;20417;-70
2022/10/04 04:25:31;;;;;;;10.88;3.90;;;;;;;11.57;46.17;101818.53;4994220;28;20064;-70
2022/10/04 04:28:07;;;;;;;5.85;3.90;;;;;;;11.56;46.50;101812.16;5008383;28;20406;-70
2022/10/04 04:30:38;;;;;;;5.38;3.80;;;;;;;11.54;46.50;101814.16;5007237;28;20449;-70
2022/10/04 04:33:15;;;;;;;5.50;3.60;;;;;;;11.55;46.78;101809.56;5007693;28;20118;-70
2022/10/04 04:35:48;;;;;;;7.60;3.92;;;;;;;11.52;46.63;101802.44;4999559;28;20057;-71
2022/10/04 04:38:23;;;;;;;6.72;3.80;;;;;;;11.55;47.07;101796.72;4999628;28;20564;-71
2022/10/04 04:40:54;;;;;;;6.72;3.75;;;;;;;11.51;46.77;101797.06;5005389;28;20034;-69
2022/10/04 04:43:26;;;;;;;6.90;3.92;;;;;;;11.54;46.50;101794.09;4999809;28;20096;-70
2022/10/04 04:45:57;;;;;;;5.90;3.83;;;;;;;11.49;46.42;101794.44;4993837;28;20051;-70
2022/10/04 04:48:46;;;;;;;8.23;4.38;;;;;;;11.48;46.39;101783.59;4996497;28;20438;-70
2022/10/04 04:51:20;;;;;;;7.72;4.28;;;;;;;11.51;46.54;101788.84;5004131;28;20051;-70
2022/10/04 04:53:49;;;;;;;7.40;4.60;;;;;;;11.47;46.07;101792.81;5006973;28;20132;-69
2022/10/04 04:56:20;;;;;;;7.25;4.78;;;;;;;11.44;46.14;101787.56;4993137;28;20065;-70
2022/10/04 04:58:52;;;;;;;7.60;4.70;;;;;;;11.44;46.35;101782.09;5008383;28;20046;-70
2022/10/04 05:01:25;;;;;;;9.10;5.05;;;;;;;11.38;46.29;101780.69;5007252;28;20565;-70
2022/10/04 05:04:01;;;;;;;7.80;4.68;;;;;;;11.37;46.98;101776.22;5004940;28;20046;-70
2022/10/04 05:06:30;;;;;;;6.43;4.63;;;;;;;11.33;46.32;101782.91;4997828;28;20060;-69
2022/10/04 05:08:58;;;;;;;8.13;4.47;;;;;;;11.30;46.69;101777.66;5006371;28;20034;-70
2022/10/04 05:11:29;;;;;;;7.40;4.28;;;;;;;11.28;46.24;101768.69;5005041;28;20056;-70
2022/10/04 05:14:04;;;;;;;7.47;4.15;;;;;;;11.28;46.59;101772.31;5006555;28;20099;-70
2022/10/04 05:16:38;;;;;;;7.35;4.43;;;;;;;11.25;46.72;101768.91;5006979;28;20045;-69
2022/10/04 05:19:11;;;;;;;7.25;4.50;;;;;;;11.25;46.90;101766.16;5006773;28;20046;-69
2022/10/04 05:21:44;;;;;;;6.78;4.20;;;;;;;11.23;46.67;101763.53;5006506;28;20077;-70
2022/10/04 05:24:19;;;;;;;6.93;4.47;;;;;;;11.20;46.44;101768.41;4995731;28;20081;-70
2022/10/04 05:26:50;;;;;;;8.18;4.63;;;;;;;11.20;47.09;101769.28;4990903;28;20060;-70
2022/10/04 05:29:22;;;;;;;6.85;4.60;;;;;;;11.21;46.85;101767.41;5002173;28;20043;-70
2022/10/04 05:32:02;;;;;;;6.85;4.55;;;;;;;11.19;47.03;101766.63;4994261;28;20503;-71
2022/10/04 05:34:38;;;;;;;7.43;4.30;;;;;;;11.19;46.70;101769.38;4993325;28;20081;-69
2022/10/04 05:37:21;;;;;;;8.38;4.80;;;;;;;11.20;47.10;101772.00;4997939;28;20394;-70
2022/10/04 05:39:57;;;;;;;9.27;5.53;;;;;;;11.17;46.62;101785.94;5009296;28;20401;-71
2022/10/04 05:42:36;;;;;;;8.25;4.85;;;;;;;11.20;47.25;101776.63;4994741;28;20391;-69
2022/10/04 05:45:14;;;;;;;7.65;4.70;;;;;;;11.20;46.81;101773.88;5003074;28;20537;-71
2022/10/04 05:47:43;;;;;;;8.57;5.18;;;;;;;11.17;46.52;101772.22;5010591;28;20556;-70
2022/10/04 05:50:17;;;;;;;8.10;5.05;;;;;;;11.21;46.83;101771.03;5011487;28;20445;-70
2022/10/04 05:52:49;;;;;;;6.88;4.53;;;;;;;11.19;46.55;101767.50;4987173;28;20073;-71
2022/10/04 05:55:25;;;;;;;8.35;4.75;;;;;;;11.19;47.16;101767.50;5000139;28;20123;-71
2022/10/04 05:58:17;;;;;;;8.75;4.97;;;;;;;11.23;47.11;101768.13;5001866;28;20039;-71
2022/10/04 06:01:07;;;;;;;8.40;4.85;;;;;;;11.23;47.11;101779.97;4984920;28;20053;-72
2022/10/04 06:04:03;;;;;;;7.75;5.20;;;;;;;11.24;46.84;101776.25;5008171;28;20112;-69
2022/10/04 06:06:39;;;;;;;8.10;5.20;;;;;;;11.25;47.16;101769.78;5000160;28;20047;-71
2022/10/04 06:09:14;;;;;;;8.73;5.70;;;;;;;11.26;46.95;101766.06;5005849;28;20045;-69
2022/10/04 06:11:54;;;;;;;9.18;5.47;;;;;;;11.29;46.85;101767.69;5003465;28;20051;-70
2022/10/04 06:15:04;;;;;;;9.88;5.90;;;;;;;11.29;47.05;101765.84;4996799;28;20049;-70
2022/10/04 06:17:57;;;;;;;8.00;5.25;;;;;;;11.30;47.34;101769.44;4981695;28;20065;-70
2022/10/04 06:20:34;;;;;;;;;;;;;;;11.05;47.78;101769.56;4998250;28;20387;-68
2022/10/04 06:23:11;;;;;;;6.65;4.45;;;;;;;11.31;46.69;101774.78;5009253;28;20366;-67
2022/10/04 06:25:46;;;;;;;7.38;4.57;;;;;;;11.36;47.20;101779.94;4995984;28;20050;-67
2022/10/04 06:28:22;;;;;;;7.60;4.72;;;;;;;11.39;47.17;101779.69;4996246;28;20054;-67
2022/10/04 06:31:25;;;;;;;7.63;4.93;;;;;;;11.43;46.88;101774.84;4964600;28;20366;-68
2022/10/04 06:34:21;;;;;;;7.70;5.20;;;;;;;11.45;47.39;101775.63;4994798;28;20042;-67
2022/10/04 06:37:09;;;;;;;7.78;4.63;;;;;;;11.50;47.13;101773.38;4987613;28;20545;-67
2022/10/04 06:39:57;;;;;;;7.32;4.60;;;;;;;11.56;47.86;101773.78;5003533;28;20454;-68
2022/10/04 06:42:48;;;;;;;7.45;4.88;;;;;;;11.66;47.60;101773.97;5005286;28;20146;-69
2022/10/04 06:45:43;;;;;;;7.40;4.53;;;;;;;11.77;47.65;101776.78;5009377;28;20042;-68
2022/10/04 06:48:34;;;;;;;7.88;4.65;;;;;;;11.91;47.81;101775.66;4994419;28;20283;-68
2022/10/04 06:51:13;;;;;;;6.68;4.45;;;;;;;12.03;47.19;101785.69;5006516;28;20054;-69
2022/10/04 06:53:57;;;;;;;6.47;4.30;;;;;;;12.13;47.06;101778.44;4944919;28;1312741;-70
2022/10/04 06:56:32;;;;;;;;;;;;;;;11.93;47.70;101784.66;4994383;28;20046;-69
2022/10/04 06:59:18;;;;;;;7.15;4.63;;;;;;;12.29;46.81;101775.38;5009022;28;19972;-69
2022/10/04 07:01:50;;;;;;;8.48;4.70;;;;;;;12.37;46.58;101776.50;4999421;28;20077;-68
2022/10/04 07:04:27;;;;;;;9.32;4.63;;;;;;;12.43;46.32;101772.38;5001530;28;20054;-66
2022/10/04 07:07:34;;;;;;;7.22;4.70;;;;;;;12.51;46.19;101767.16;4972198;28;20443;-69
2022/10/04 07:10:29;;;;;;;7.55;4.60;;;;;;;12.54;46.47;101766.91;4999346;28;20228;-68
2022/10/04 07:13:13;;;;;;;8.88;4.75;;;;;;;12.65;46.33;101766.03;5008553;28;20054;-69
2022/10/04 07:15:47;;;;;;;6.72;4.78;;;;;;;12.69;46.20;101782.16;4990716;28;20554;-69
2022/10/04 07:18:31;;;;;;;7.07;4.60;;;;;;;12.74;46.17;101776.28;4984741;28;20061;-69
2022/10/04 07:21:05;;;;;;;6.72;4.57;;;;;;;12.78;45.53;101778.66;4997521;28;20042;-68
2022/10/04 07:23:39;;;;;;;7.18;4.70;;;;;;;12.82;45.84;101785.63;5009548;28;20098;-69
2022/10/04 07:26:20;;;;;;;7.82;4.90;;;;;;;12.87;45.68;101786.13;5007985;28;20208;-68
2022/10/04 07:31:37;;;;;;;7.45;4.97;;;;;;;12.89;45.88;101786.00;5008089;28;20056;-68
2022/10/04 07:34:11;;;;;;;8.25;4.43;;;;;;;12.95;45.96;101788.25;4999753;28;20418;-68
2022/10/04 07:36:45;;;;;;;6.18;4.38;;;;;;;13.00;46.03;101785.09;5005270;28;20580;-68
2022/10/04 07:39:17;;;;;;;8.23;4.53;;;;;;;13.06;45.77;101782.72;4997418;28;20750;-68
2022/10/04 07:41:50;;;;;;;8.85;4.47;;;;;;;13.11;46.10;101785.09;4997291;28;20045;-68
2022/10/04 07:44:25;;;;;;;;;;;;;;;12.90;46.01;101787.75;5002811;28;20042;-68
2022/10/04 07:46:58;;;;;;;6.55;4.35;;;;;;;13.20;45.59;101795.31;5005790;28;20238;-68
2022/10/04 07:49:26;;;;;;;;;;;;;;;12.98;46.06;101798.97;5008854;28;20078;-67
2022/10/04 07:52:25;;;;;;;6.40;3.90;;;;;;;13.28;44.65;101805.69;5007890;28;19976;-68
2022/10/04 07:55:06;;;;;;;7.97;4.32;;;;;;;13.33;44.82;101795.16;4973649;28;20077;-69
2022/10/04 07:57:43;;;;;;;8.75;4.60;;;;;;;13.31;44.26;101788.91;5002543;28;20080;-70
2022/10/04 08:00:17;;;;;;;7.38;4.90;;;;;;;13.30;44.35;101795.41;5009727;28;20046;-70
2022/10/04 08:02:58;;;;;;;7.32;4.88;;;;;;;13.28;44.42;101795.56;5003762;28;20046;-70
2022/10/04 08:05:35;;;;;;;6.63;4.22;;;;;;;13.25;44.17;101793.06;5002025;28;20085;-70
2022/10/04 08:08:26;;;;;;;7.85;4.93;;;;;;;13.20;43.89;101787.09;5000258;28;20046;-70
2022/10/04 08:11:16;;;;;;;6.85;4.45;;;;;;;13.15;44.17;101789.31;4997451;28;20095;-70
2022/10/04 08:13:54;;;;;;;7.00;4.38;;;;;;;13.13;43.96;101792.19;4983798;28;20049;-69
2022/10/04 08:16:34;;;;;;;7.35;4.75;;;;;;;13.09;44.13;101785.22;4988249;28;20081;-70
2022/10/04 08:19:20;;;;;;;7.03;4.40;;;;;;;13.08;44.54;101783.47;4993986;28;20046;-70
2022/10/04 08:21:59;;;;;;;7.43;4.90;;;;;;;13.07;44.54;101778.97;5007248;28;20121;-68
2022/10/04 08:24:32;;;;;;;7.15;4.55;;;;;;;13.06;44.70;101782.72;5007691;28;20046;-69
2022/10/04 08:27:23;;;;;;;8.10;4.68;;;;;;;13.07;44.18;101781.72;5006910;28;20050;-69
2022/10/04 08:30:11;;;;;;;7.18;5.15;;;;;;;13.04;44.22;101778.34;5007842;28;20052;-69
2022/10/04 08:32:54;;;;;;;7.65;4.65;;;;;;;13.06;44.30;101770.84;5007262;28;20140;-69
2022/10/04 08:35:35;;;;;;;8.50;5.38;;;;;;;13.05;44.27;101778.22;4996585;28;20427;-70
2022/10/04 08:38:26;;;;;;;7.00;5.22;;;;;;;13.08;44.85;101774.34;5001490;28;20506;-68
2022/10/04 08:41:41;;;;;;;7.43;5.00;;;;;;;13.06;44.33;101779.97;4998485;28;20046;-68
2022/10/04 08:44:41;;;;;;;7.75;5.30;;;;;;;13.10;44.69;101769.59;4988062;28;20073;-69
2022/10/04 08:47:42;;;;;;;8.15;4.90;;;;;;;13.15;44.36;101778.31;4980922;28;20129;-70
2022/10/04 08:50:38;;;;;;;7.63;4.50;;;;;;;13.24;45.16;101781.19;4995822;28;20144;-70
2022/10/04 08:54:00;;;;;;;7.72;4.55;;;;;;;13.34;44.77;101774.91;5003707;28;20049;-69
2022/10/04 08:56:45;;;;;;;7.90;4.13;;;;;;;13.50;45.32;101780.84;4988240;28;20050;-70
2022/10/04 08:59:36;;;;;;;8.55;4.70;;;;;;;13.63;45.21;101781.56;4988670;28;20070;-70
2022/10/04 09:02:33;;;;;;;8.50;5.00;;;;;;;13.77;45.03;101772.13;4991652;28;20561;-71
2022/10/04 09:05:31;;;;;;;6.32;4.20;;;;;;;13.92;44.75;101777.16;5003134;28;20041;-69
2022/10/04 09:08:58;;;;;;;5.25;4.03;;;;;;;14.05;44.42;101778.84;4998464;28;20501;-70
2022/10/04 09:11:45;;;;;;;7.95;5.05;;;;;;;14.25;44.25;101778.84;4981047;28;20065;-70
2022/10/04 09:14:50;;;;;;;6.95;4.88;;;;;;;14.38;43.94;101781.34;4998027;28;20121;-70
2022/10/04 09:17:22;;;;;;;7.88;4.75;;;;;;;14.48;43.37;101776.81;4987105;28;20046;-70
2022/10/04 09:19:56;;;;;;;6.57;4.13;;;;;;;14.63;43.76;101764.41;4983333;28;20064;-70
2022/10/04 09:22:50;;;;;;;8.10;4.60;;;;;;;14.72;43.01;101766.31;4991808;28;20529;-70
2022/10/04 09:25:57;;;;;;;7.38;4.20;;;;;;;14.84;43.39;101764.34;5005096;28;20088;-69
2022/10/04 09:29:01;;;;;;;6.68;4.25;;;;;;;14.94;42.93;101758.84;4968206;28;20057;-69
2022/10/04 09:32:03;;;;;;;6.18;4.07;;;;;;;15.03;42.51;101758.88;4996977;28;20050;-70
2022/10/04 09:34:41;;;;;;;6.72;4.18;;;;;;;15.16;42.78;101757.75;4996759;28;20054;-70
2022/10/04 09:37:29;;;;;;;7.00;3.75;;;;;;;15.27;41.43;101755.72;4997499;28;20074;-70
2022/10/04 09:40:36;;;;;;;6.05;3.50;;;;;;;15.33;42.11;101760.69;5010189;28;20128;-70
2022/10/04 09:43:23;;;;;;;6.85;3.55;;;;;;;15.48;42.45;101759.25;5000552;28;20054;-69
2022/10/04 09:46:14;;;;;;;6.88;4.15;;;;;;;15.54;41.06;101748.66;4998862;28;20402;-70
2022/10/04 09:48:57;;;;;;;6.35;3.80;;;;;;;15.62;40.61;101757.06;4991596;28;20058;-70
2022/10/04 09:51:40;;;;;;;6.07;3.40;;;;;;;15.72;42.11;101750.53;5009450;28;20049;-70
2022/10/04 09:54:32;;;;;;;6.72;3.97;;;;;;;15.86;42.08;101750.09;5010959;28;20052;-70
2022/10/04 09:57:21;;;;;;;8.52;3.80;;;;;;;15.96;41.66;101747.31;4999582;28;20057;-70
2022/10/04 10:00:09;;;;;;;6.03;3.20;;;;;;;16.08;41.90;101745.25;4997987;28;20092;-69
2022/10/04 10:03:03;;;;;;;5.40;3.40;;;;;;;16.22;41.54;101753.09;4996752;28;20510;-69
2022/10/04 10:05:52;;;;;;;7.32;4.07;;;;;;;16.35;41.47;101741.72;5007043;28;20072;-69
2022/10/04 10:08:26;;;;;;;5.68;3.97;;;;;;;16.48;41.61;101733.97;5011828;28;20049;-71
2022/10/04 10:14:34;;;;;;;6.63;4.03;;;;;;;16.68;39.94;101731.97;4997395;28;20065;-71
2022/10/04 10:17:14;;;;;;;5.72;3.42;;;;;;;16.79;40.28;101732.66;4937044;28;20580;-71
2022/10/04 10:20:09;;;;;;;6.35;3.40;;;;;;;16.87;40.45;101737.41;5009229;28;20041;-71
2022/10/04 10:22:58;;;;;;;4.55;2.85;;;;;;;16.94;39.90;101733.88;4990167;28;20133;-71
2022/10/04 10:25:40;;;;;;;4.70;3.08;;;;;;;17.01;40.20;101734.13;5002913;28;20517;-71
2022/10/04 10:28:30;;;;;;;4.90;3.20;;;;;;;17.07;39.59;101728.00;5003774;28;20080;-71
2022/10/04 10:31:17;;;;;;;6.28;3.30;;;;;;;17.17;40.13;101727.91;5010044;28;20037;-71
2022/10/04 10:34:32;;;;;;;3.80;2.50;;;;;;;17.18;40.44;101722.22;5008121;28;20041;-71
2022/10/04 10:37:09;;;;;;;6.05;2.58;;;;;;;17.34;39.71;101716.00;4934712;29;20051;-71
2022/10/04 10:40:02;;;;;;;5.45;3.03;;;;;;;17.41;39.13;101725.41;4947959;29;20542;-69
2022/10/04 10:42:54;;;;;;;;;;;;;;;17.20;40.82;101731.25;4989242;28;20053;-69
2022/10/04 10:45:44;;;;;;;5.28;2.40;;;;;;;17.59;39.52;101722.63;4974343;28;19922;-69
2022/10/04 10:48:17;;;;;;;5.20;2.78;;;;;;;17.68;39.97;101714.25;4990543;28;20459;-69
2022/10/04 10:51:01;;;;;;;;;;;;;;;17.48;40.98;101721.00;5008634;28;20044;-70
2022/10/04 10:53:46;;;;;;;5.03;2.50;;;;;;;17.87;39.09;101709.56;5008177;28;19921;-70
2022/10/04 10:56:34;;;;;;;4.65;2.42;;;;;;;17.99;39.02;101709.13;5003941;28;20104;-72
2022/10/04 10:59:36;;;;;;;4.07;2.40;;;;;;;18.08;38.58;101713.69;4985680;28;20356;-70
2022/10/04 11:02:37;;;;;;;5.00;2.55;;;;;;;18.20;38.61;101717.06;5007614;28;20049;-70
2022/10/04 11:05:37;;;;;;;4.45;2.72;;;;;;;18.29;38.51;101704.16;5002245;28;20476;-70
2022/10/04 11:08:21;;;;;;;3.78;2.53;;;;;;;18.42;38.22;101699.88;4990431;28;20402;-70
2022/10/04 11:11:16;;;;;;;4.10;2.40;;;;;;;18.49;37.96;101702.88;5005101;28;20046;-70
2022/10/04 11:14:21;;;;;;;5.78;2.92;;;;;;;18.59;37.33;101689.75;5006407;28;20451;-70
2022/10/04 11:17:12;;;;;;;4.93;2.80;;;;;;;18.66;37.34;101690.81;4988983;28;20054;-71
2022/10/04 11:20:26;;;;;;;6.35;2.90;;;;;;;18.65;37.35;101689.09;4991570;28;20057;-70
2022/10/04 11:23:51;;;;;;;5.60;2.70;;;;;;;18.67;37.37;101681.47;4999310;28;20499;-70
2022/10/04 11:26:52;;;;;;;4.20;2.75;;;;;;;18.75;37.08;101684.28;4920478;29;20063;-70
2022/10/04 11:29:34;;;;;;;4.70;2.92;;;;;;;18.82;36.73;101685.34;4929074;29;20529;-70
2022/10/04 11:33:02;;;;;;;5.53;2.80;;;;;;;18.81;37.53;101671.63;5003593;28;20069;-70
2022/10/04 11:35:45;;;;;;;5.25;2.65;;;;;;;18.90;36.74;101676.19;4995097;28;20056;-70
2022/10/04 11:38:43;;;;;;;5.35;2.70;;;;;;;18.95;36.45;101679.31;5008931;28;20583;-70
2022/10/04 11:41:16;;;;;;;4.88;2.90;;;;;;;18.99;36.94;101675.16;5005385;28;20060;-70
2022/10/04 11:43:58;;;;;;;;;;;;;;;18.73;37.49;101675.25;4997503;28;20070;-70
2022/10/04 11:46:39;;;;;;;4.95;2.75;;;;;;;19.05;36.69;101676.41;4981026;28;20317;-70
2022/10/04 11:49:25;;;;;;;5.22;2.70;;;;;;;19.10;35.94;101671.19;4996133;28;20555;-70
2022/10/04 11:52:39;;;;;;;4.78;2.70;;;;;;;19.08;36.33;101663.03;4992705;28;20049;-70
2022/10/04 11:55:42;;;;;;;5.18;2.92;;;;;;;19.11;36.11;101664.63;4983684;28;20061;-70
2022/10/04 11:58:16;;;;;;;;;;;;;;;18.85;37.99;101659.19;4996992;28;20050;-70
2022/10/04 12:01:20;;;;;;;4.28;2.50;;;;;;;19.17;36.57;101667.56;5005317;28;19921;-69
2022/10/04 12:04:36;;;;;;;5.47;2.78;;;;;;;19.20;35.69;101672.81;4980482;28;20145;-71
2022/10/04 12:07:25;;;;;;;5.70;2.97;;;;;;;19.27;35.46;101673.88;5001130;28;20140;-71
2022/10/04 12:10:03;;;;;;;4.82;3.10;;;;;;;19.29;35.21;101673.69;5007851;28;20502;-71
2022/10/04 12:12:53;;;;;;;5.85;3.22;;;;;;;19.30;35.11;101674.53;5001614;28;20111;-71
2022/10/04 12:15:44;;;;;;;4.13;2.70;;;;;;;19.31;34.87;101673.50;4992375;28;20052;-70
2022/10/04 12:18:39;;;;;;;4.40;2.40;;;;;;;19.33;34.70;101668.66;5000603;28;20298;-70
2022/10/04 12:21:43;;;;;;;5.40;2.80;;;;;;;19.31;35.04;101659.63;4988206;28;20042;-70
2022/10/04 12:24:41;;;;;;;4.18;2.33;;;;;;;19.35;34.70;101661.03;5006399;28;20062;-70
2022/10/04 12:27:37;;;;;;;3.50;2.47;;;;;;;19.38;34.83;101644.03;4979898;28;20487;-70
2022/10/04 12:30:25;;;;;;;5.30;2.20;;;;;;;19.41;34.61;101633.44;5008702;28;20121;-70
2022/10/04 12:33:04;;;;;;;4.22;2.45;;;;;;;19.44;34.86;101641.44;5007742;28;20491;-70
2022/10/04 12:35:47;;;;;;;4.40;2.58;;;;;;;19.49;34.89;101638.13;4996030;28;20133;-70
2022/10/04 12:38:56;;;;;;;3.67;2.65;;;;;;;19.47;34.73;101627.19;5004182;28;20125;-70
2022/10/04 12:41:38;;;;;;;4.32;2.35;;;;;;;19.53;34.69;101628.41;4961144;28;20484;-70